createdAt,value
2019-02-11T00:00:14.287Z,8.40
2019-02-11T00:02:42.869Z,8.40
2019-02-11T00:05:11.439Z,8.40
2019-02-11T00:07:40.243Z,8.40
2019-02-11T00:10:08.883Z,8.40
2019-02-11T00:12:37.691Z,8.40
2019-02-11T00:15:09.615Z,8.40
2019-02-11T00:17:38.259Z,8.40
2019-02-11T00:20:06.877Z,8.40
2019-02-11T00:22:35.527Z,8.50
2019-02-11T00:25:05.217Z,8.50
2019-02-11T00:27:35.537Z,8.50
2019-02-11T00:30:05.558Z,8.50
2019-02-11T00:32:34.237Z,8.40
2019-02-11T00:35:02.792Z,8.30
2019-02-11T00:37:31.631Z,8.20
2019-02-11T00:40:00.339Z,8.20
2019-02-11T00:42:29.131Z,8.20
2019-02-11T00:44:57.693Z,8.20
2019-02-11T00:47:26.323Z,8.10
2019-02-11T00:49:54.883Z,8.10
2019-02-11T00:52:23.521Z,8.10
2019-02-11T00:54:52.079Z,8.00
2019-02-11T00:57:21.042Z,8.00
2019-02-11T00:59:49.654Z,8.00
2019-02-11T01:02:18.239Z,8.00
2019-02-11T01:04:46.803Z,8.00
2019-02-11T01:07:15.585Z,7.90
2019-02-11T01:09:44.157Z,7.90
2019-02-11T01:12:12.811Z,7.90
2019-02-11T01:14:41.377Z,7.90
2019-02-11T01:17:10.273Z,7.80
2019-02-11T01:19:38.834Z,7.80
2019-02-11T01:22:07.539Z,7.70
2019-02-11T01:24:36.107Z,7.70
2019-02-11T01:27:05.231Z,7.70
2019-02-11T01:29:33.800Z,7.70
2019-02-11T01:32:02.424Z,7.70
2019-02-11T01:34:30.985Z,7.60
2019-02-11T01:36:59.999Z,7.50
2019-02-11T01:39:28.565Z,7.30
2019-02-11T01:41:57.191Z,7.20
2019-02-11T01:44:25.767Z,7.00
2019-02-11T01:46:54.397Z,6.90
2019-02-11T01:49:22.887Z,6.80
2019-02-11T01:51:51.445Z,6.60
2019-02-11T01:54:20.365Z,6.60
2019-02-11T01:56:48.923Z,6.50
2019-02-11T01:59:19.205Z,6.50
2019-02-11T02:01:47.757Z,6.40
2019-02-11T02:04:16.385Z,6.30
2019-02-11T02:06:44.955Z,6.30
2019-02-11T02:09:13.618Z,6.30
2019-02-11T02:11:42.184Z,6.30
2019-02-11T02:14:11.071Z,6.30
2019-02-11T02:16:39.631Z,6.30
2019-02-11T02:19:08.274Z,6.30
2019-02-11T02:21:37.261Z,6.30
2019-02-11T02:24:05.905Z,6.20
2019-02-11T02:26:34.473Z,6.20
2019-02-11T02:29:03.110Z,6.10
2019-02-11T02:31:31.668Z,6.00
2019-02-11T02:34:00.660Z,6.00
2019-02-11T02:36:29.222Z,5.90
2019-02-11T02:38:57.859Z,5.90
2019-02-11T02:41:26.411Z,5.80
2019-02-11T02:43:55.971Z,5.70
2019-02-11T02:46:24.627Z,5.70
2019-02-11T02:48:53.193Z,5.70
2019-02-11T02:51:22.074Z,5.60
2019-02-11T02:53:50.711Z,5.60
2019-02-11T02:56:19.270Z,5.60
2019-02-11T02:58:47.909Z,5.50
2019-02-11T03:01:16.459Z,5.50
2019-02-11T03:03:45.175Z,5.50
2019-02-11T03:06:13.735Z,5.40
2019-02-11T03:08:42.763Z,5.40
2019-02-11T03:11:11.315Z,5.40
2019-02-11T03:13:39.966Z,5.50
2019-02-11T03:16:08.923Z,5.40
2019-02-11T03:18:37.557Z,5.40
2019-02-11T03:21:06.122Z,5.40
2019-02-11T03:23:35.000Z,5.40
2019-02-11T03:26:03.570Z,5.50
2019-02-11T03:28:32.334Z,5.50
2019-02-11T03:31:00.853Z,5.40
2019-02-11T03:33:29.511Z,5.40
2019-02-11T03:35:58.071Z,5.40
2019-02-11T03:38:26.903Z,5.30
2019-02-11T03:40:55.462Z,5.30
2019-02-11T03:43:24.124Z,5.30
2019-02-11T03:45:52.690Z,5.30
2019-02-11T03:48:21.327Z,5.30
2019-02-11T03:50:49.889Z,5.30
2019-02-11T03:53:18.814Z,5.40
2019-02-11T03:55:47.367Z,5.30
2019-02-11T03:58:16.077Z,5.30
2019-02-11T04:00:44.637Z,5.20
2019-02-11T04:03:13.265Z,5.20
2019-02-11T04:05:41.823Z,5.10
2019-02-11T04:08:10.723Z,5.10
2019-02-11T04:10:39.299Z,5.10
2019-02-11T04:13:08.423Z,5.00
2019-02-11T04:15:56.317Z,5.00
2019-02-11T04:18:24.996Z,5.00
2019-02-11T04:20:53.557Z,5.00
2019-02-11T04:23:22.491Z,5.00
2019-02-11T04:25:51.063Z,5.00
2019-02-11T04:28:19.689Z,5.10
2019-02-11T04:30:48.243Z,5.10
2019-02-11T04:33:16.893Z,5.10
2019-02-11T04:35:45.453Z,5.10
2019-02-11T04:38:14.086Z,5.10
2019-02-11T04:40:42.647Z,5.10
2019-02-11T04:43:11.580Z,5.10
2019-02-11T04:45:40.212Z,5.10
2019-02-11T04:48:08.902Z,5.20
2019-02-11T04:50:37.447Z,5.20
2019-02-11T04:53:06.082Z,5.20
2019-02-11T04:55:34.645Z,5.20
2019-02-11T04:58:03.292Z,5.20
2019-02-11T05:00:34.623Z,5.20
2019-02-11T05:03:03.515Z,5.20
2019-02-11T05:05:32.079Z,5.20
2019-02-11T05:08:01.126Z,5.20
2019-02-11T05:10:29.679Z,5.20
2019-02-11T05:12:58.318Z,5.20
2019-02-11T05:15:26.890Z,5.20
2019-02-11T05:17:55.938Z,5.20
2019-02-11T05:20:24.490Z,5.20
2019-02-11T05:22:53.157Z,5.20
2019-02-11T05:25:21.728Z,5.20
2019-02-11T05:27:50.383Z,5.20
2019-02-11T05:30:18.955Z,5.20
2019-02-11T05:32:47.753Z,5.20
2019-02-11T05:35:16.310Z,5.30
2019-02-11T05:37:45.104Z,5.30
2019-02-11T05:40:13.746Z,5.30
2019-02-11T05:42:42.377Z,5.20
2019-02-11T05:45:10.956Z,5.20
2019-02-11T05:47:39.673Z,5.30
2019-02-11T05:50:10.555Z,5.30
2019-02-11T05:52:42.365Z,5.20
2019-02-11T05:55:11.011Z,5.20
2019-02-11T05:57:39.627Z,5.20
2019-02-11T06:00:11.369Z,5.20
2019-02-11T06:02:40.224Z,5.20
2019-02-11T06:05:08.859Z,5.20
2019-02-11T06:07:37.650Z,5.20
2019-02-11T06:10:09.351Z,5.30
2019-02-11T06:12:38.004Z,5.20
2019-02-11T06:15:09.944Z,5.20
2019-02-11T06:17:38.590Z,5.20
2019-02-11T06:20:09.309Z,5.20
2019-02-11T06:22:37.990Z,5.20
2019-02-11T06:25:08.357Z,5.20
2019-02-11T06:27:37.489Z,5.10
2019-02-11T06:30:09.690Z,5.20
2019-02-11T06:32:38.324Z,5.20
2019-02-11T06:35:08.512Z,5.10
2019-02-11T06:37:37.548Z,5.10
2019-02-11T06:40:09.133Z,5.10
2019-02-11T06:42:37.822Z,5.10
2019-02-11T06:45:13.184Z,5.10
2019-02-11T06:47:39.204Z,5.10
2019-02-11T06:50:11.408Z,5.10
2019-02-11T06:52:40.516Z,5.10
2019-02-11T06:55:12.378Z,5.10
2019-02-11T06:57:42.504Z,5.10
2019-02-11T07:00:13.294Z,5.20
2019-02-11T07:02:41.996Z,5.20
2019-02-11T07:05:10.695Z,5.20
2019-02-11T07:07:39.809Z,5.30
2019-02-11T07:10:10.996Z,5.20
2019-02-11T07:12:39.638Z,5.30
2019-02-11T07:15:11.258Z,5.20
2019-02-11T07:17:39.895Z,5.30
2019-02-11T07:20:10.290Z,5.30
2019-02-11T07:22:39.389Z,5.30
2019-02-11T07:25:10.140Z,5.30
2019-02-11T07:27:39.050Z,5.30
2019-02-11T07:30:13.073Z,5.30
2019-02-11T07:32:41.632Z,5.40
2019-02-11T07:35:10.352Z,5.40
2019-02-11T07:37:38.990Z,5.40
2019-02-11T07:40:12.125Z,5.50
2019-02-11T07:42:54.552Z,5.60
2019-02-11T07:45:36.600Z,5.60
2019-02-11T07:48:05.364Z,5.60
2019-02-11T07:50:33.924Z,5.70
2019-02-11T07:53:02.940Z,5.70
2019-02-11T07:55:34.340Z,5.80
2019-02-11T07:58:03.167Z,5.90
2019-02-11T08:00:31.728Z,5.90
2019-02-11T08:03:00.552Z,6.00
2019-02-11T08:05:29.111Z,6.00
2019-02-11T08:07:57.920Z,6.10
2019-02-11T08:10:26.488Z,6.00
2019-02-11T08:12:55.494Z,6.00
2019-02-11T08:15:24.068Z,6.00
2019-02-11T08:17:52.862Z,6.00
2019-02-11T08:20:21.441Z,6.00
2019-02-11T08:22:50.247Z,6.00
2019-02-11T08:25:19.134Z,6.00
2019-02-11T08:27:47.776Z,6.00
2019-02-11T08:30:16.848Z,6.00
2019-02-11T08:32:45.659Z,6.00
2019-02-11T08:35:14.291Z,6.00
2019-02-11T08:37:43.034Z,6.00
2019-02-11T08:40:11.664Z,6.10
2019-02-11T08:42:40.460Z,6.10
2019-02-11T08:45:10.671Z,6.10
2019-02-11T08:47:39.993Z,6.10
2019-02-11T08:50:09.588Z,6.10
2019-02-11T08:52:38.982Z,6.10
2019-02-11T08:55:08.670Z,6.10
2019-02-11T08:57:37.228Z,6.10
2019-02-11T09:00:11.174Z,6.20
2019-02-11T09:02:40.028Z,6.30
2019-02-11T09:05:08.965Z,6.30
2019-02-11T09:07:37.599Z,6.40
2019-02-11T09:10:09.604Z,6.40
2019-02-11T09:12:38.232Z,6.60
2019-02-11T09:15:10.048Z,6.70
2019-02-11T09:17:38.610Z,6.70
2019-02-11T09:20:10.084Z,6.80
2019-02-11T09:22:38.980Z,6.90
2019-02-11T09:25:10.331Z,6.90
2019-02-11T09:27:38.904Z,6.90
2019-02-11T09:30:17.949Z,7.10
2019-02-11T09:32:46.541Z,7.10
2019-02-11T09:35:15.499Z,7.20
2019-02-11T09:37:44.049Z,7.20
2019-02-11T09:40:15.757Z,7.20
2019-02-11T09:42:44.310Z,7.30
2019-02-11T09:45:18.938Z,7.30
2019-02-11T09:47:48.055Z,7.40
2019-02-11T09:50:19.920Z,7.50
2019-02-11T09:52:48.555Z,7.50
2019-02-11T09:55:23.635Z,7.60
2019-02-11T09:57:52.200Z,7.70
2019-02-11T10:00:20.996Z,8.00
2019-02-11T10:02:49.621Z,8.00
2019-02-11T10:05:18.254Z,7.90
2019-02-11T10:07:46.840Z,7.80
2019-02-11T10:10:15.535Z,7.80
2019-02-11T10:12:44.107Z,7.80
2019-02-11T10:15:14.675Z,7.80
2019-02-11T10:17:43.240Z,7.90
2019-02-11T10:20:14.229Z,7.80
2019-02-11T10:22:42.842Z,7.80
2019-02-11T10:25:23.088Z,7.80
2019-02-11T10:27:53.406Z,7.80
2019-02-11T10:30:22.242Z,8.00
2019-02-11T10:32:50.796Z,8.00
2019-02-11T10:35:19.914Z,8.00
2019-02-11T10:37:48.610Z,8.10
2019-02-11T10:40:17.244Z,8.00
2019-02-11T10:42:45.804Z,8.20
2019-02-11T10:45:16.136Z,8.10
2019-02-11T10:47:46.933Z,8.10
2019-02-11T10:50:17.722Z,8.20
2019-02-11T10:52:46.726Z,8.20
2019-02-11T10:55:20.594Z,8.20
2019-02-11T10:57:49.302Z,8.20
2019-02-11T11:00:23.192Z,8.10
2019-02-11T11:02:51.758Z,8.10
2019-02-11T11:05:20.640Z,8.10
2019-02-11T11:07:49.249Z,8.10
2019-02-11T11:10:36.455Z,8.20
2019-02-11T11:13:05.320Z,8.40
2019-02-11T11:15:34.062Z,8.40
2019-02-11T11:18:02.684Z,8.40
2019-02-11T11:20:31.577Z,8.40
2019-02-11T11:23:00.214Z,8.40
2019-02-11T11:25:28.781Z,8.30
2019-02-11T11:27:57.637Z,8.30
2019-02-11T11:30:26.332Z,8.30
2019-02-11T11:32:55.114Z,8.30
2019-02-11T11:35:24.076Z,8.40
2019-02-11T11:37:52.773Z,8.40
2019-02-11T11:40:22.678Z,8.40
2019-02-11T11:42:51.803Z,8.40
2019-02-11T11:45:21.302Z,8.40
2019-02-11T11:47:50.520Z,8.40
2019-02-11T11:50:19.348Z,8.30
2019-02-11T11:52:47.999Z,8.30
2019-02-11T11:55:19.012Z,8.20
2019-02-11T11:57:47.769Z,8.10
2019-02-11T12:00:24.634Z,8.00
2019-02-11T12:03:04.023Z,7.90
2019-02-11T12:05:25.471Z,7.70
2019-02-11T12:07:54.527Z,7.50
2019-02-11T12:10:23.418Z,7.40
2019-02-11T12:12:52.630Z,7.30
2019-02-11T12:15:23.306Z,7.30
2019-02-11T12:17:52.129Z,7.40
2019-02-11T12:20:21.215Z,7.40
2019-02-11T12:22:49.929Z,7.20
2019-02-11T12:25:18.856Z,7.20
2019-02-11T12:27:47.495Z,7.20
2019-02-11T12:30:18.602Z,7.20
2019-02-11T12:32:47.599Z,7.20
2019-02-11T12:35:16.158Z,7.20
2019-02-11T12:37:45.058Z,7.20
2019-02-11T12:40:14.031Z,7.20
2019-02-11T12:42:42.672Z,7.10
2019-02-11T12:45:16.489Z,7.00
2019-02-11T12:47:45.549Z,7.00
2019-02-11T12:50:15.944Z,7.20
2019-02-11T12:52:45.007Z,7.30
2019-02-11T12:55:16.128Z,7.30
2019-02-11T12:57:44.670Z,7.50
2019-02-11T13:00:18.802Z,7.50
2019-02-11T13:02:47.696Z,7.50
2019-02-11T13:05:16.631Z,7.50
2019-02-11T13:07:45.275Z,7.50
2019-02-11T13:10:17.293Z,7.40
2019-02-11T13:12:45.842Z,7.30
2019-02-11T13:15:34.749Z,7.10
2019-02-11T13:17:46.303Z,7.20
2019-02-11T13:20:16.462Z,7.30
2019-02-11T13:22:45.344Z,7.30
2019-02-11T13:25:16.023Z,7.30
2019-02-11T13:27:44.762Z,7.30
2019-02-11T13:30:19.061Z,7.20
2019-02-11T13:32:47.786Z,7.20
2019-02-11T13:35:16.444Z,7.20
2019-02-11T13:37:45.106Z,7.20
2019-02-11T13:40:14.727Z,7.10
2019-02-11T13:42:43.589Z,7.10
2019-02-11T13:45:18.417Z,7.10
2019-02-11T13:47:54.741Z,7.10
2019-02-11T13:50:28.894Z,7.10
2019-02-11T13:52:58.131Z,7.20
2019-02-11T13:55:30.664Z,7.20
2019-02-11T13:57:57.846Z,7.20
2019-02-11T14:00:29.045Z,7.20
2019-02-11T14:02:59.249Z,7.30
2019-02-11T14:05:29.444Z,7.30
2019-02-11T14:08:00.249Z,7.40
2019-02-11T14:10:29.720Z,7.50
2019-02-11T14:12:58.927Z,7.60
2019-02-11T14:15:27.838Z,7.60
2019-02-11T14:18:11.811Z,7.60
2019-02-11T14:20:36.118Z,7.70
2019-02-11T14:23:05.536Z,7.70
2019-02-11T14:25:43.908Z,7.80
2019-02-11T14:28:06.439Z,7.80
2019-02-11T14:30:35.597Z,7.80
2019-02-11T14:33:04.774Z,7.80
2019-02-11T14:35:33.402Z,7.80
2019-02-11T14:38:02.931Z,7.80
2019-02-11T14:40:32.227Z,7.70
2019-02-11T14:43:00.809Z,7.70
2019-02-11T14:45:30.463Z,7.80
2019-02-11T14:47:59.127Z,7.90
2019-02-11T14:50:27.862Z,7.90
2019-02-11T14:52:56.594Z,8.00
2019-02-11T14:55:25.268Z,8.00
2019-02-11T14:57:53.828Z,7.90
2019-02-11T15:00:23.080Z,7.90
2019-02-11T15:02:51.661Z,7.90
2019-02-11T15:05:20.597Z,7.80
2019-02-11T15:07:49.308Z,7.80
2019-02-11T15:10:19.739Z,7.70
2019-02-11T15:12:48.599Z,7.60
2019-02-11T15:15:17.492Z,7.50
2019-02-11T15:17:47.047Z,7.50
2019-02-11T15:20:16.905Z,7.40
2019-02-11T15:22:45.466Z,7.30
2019-02-11T15:25:16.628Z,7.20
2019-02-11T15:27:45.248Z,7.20
2019-02-11T15:30:16.336Z,7.10
2019-02-11T15:32:44.968Z,7.10
2019-02-11T15:35:13.688Z,7.10
2019-02-11T15:37:42.327Z,7.10
2019-02-11T15:40:20.206Z,7.10
2019-02-11T15:42:48.928Z,7.10
2019-02-11T15:45:17.692Z,7.10
2019-02-11T15:47:47.914Z,7.10
2019-02-11T15:50:17.882Z,7.10
2019-02-11T15:52:46.613Z,7.10
2019-02-11T15:55:21.777Z,7.00
2019-02-11T15:57:50.413Z,7.00
2019-02-11T16:00:21.660Z,7.00
2019-02-11T16:02:51.793Z,6.90
2019-02-11T16:05:20.822Z,6.90
2019-02-11T16:07:49.449Z,6.80
2019-02-11T16:10:24.167Z,6.80
2019-02-11T16:12:52.726Z,6.80
2019-02-11T16:15:21.703Z,6.70
2019-02-11T16:17:50.427Z,6.70
2019-02-11T16:20:19.027Z,6.70
2019-02-11T16:22:47.622Z,6.60
2019-02-11T16:25:17.340Z,6.60
2019-02-11T16:27:46.177Z,6.50
2019-02-11T16:30:17.118Z,6.40
2019-02-11T16:32:45.901Z,6.40
2019-02-11T16:35:16.580Z,6.30
2019-02-11T16:37:45.314Z,6.30
2019-02-11T16:40:16.756Z,6.20
2019-02-11T16:42:45.394Z,6.10
2019-02-11T16:45:15.770Z,6.10
2019-02-11T16:47:44.498Z,6.00
2019-02-11T16:50:13.783Z,5.90
2019-02-11T16:52:42.363Z,5.90
2019-02-11T16:55:12.342Z,5.80
2019-02-11T16:57:40.952Z,5.70
2019-02-11T17:00:12.930Z,5.70
2019-02-11T17:02:41.494Z,5.70
2019-02-11T17:05:11.682Z,5.60
2019-02-11T17:07:41.946Z,5.60
2019-02-11T17:10:12.691Z,5.70
2019-02-11T17:12:41.485Z,5.70
2019-02-11T17:15:12.622Z,5.70
2019-02-11T17:17:41.226Z,5.70
2019-02-11T17:20:12.298Z,5.60
2019-02-11T17:22:41.016Z,5.60
2019-02-11T17:25:11.109Z,5.60
2019-02-11T17:27:39.730Z,5.50
2019-02-11T17:30:15.374Z,5.50
2019-02-11T17:32:44.291Z,5.40
2019-02-11T17:35:13.178Z,5.40
2019-02-11T17:37:41.912Z,5.40
2019-02-11T17:40:16.225Z,5.30
2019-02-11T17:42:44.866Z,5.30
2019-02-11T17:45:16.700Z,5.30
2019-02-11T17:47:45.275Z,5.30
2019-02-11T17:50:14.046Z,5.20
2019-02-11T17:52:42.961Z,5.20
2019-02-11T17:55:13.937Z,5.30
2019-02-11T17:57:42.656Z,5.20
2019-02-11T18:00:24.940Z,5.20
2019-02-11T18:02:54.106Z,5.20
2019-02-11T18:05:22.796Z,5.20
2019-02-11T18:07:51.673Z,5.20
2019-02-11T18:10:21.256Z,5.20
2019-02-11T18:12:49.838Z,5.20
2019-02-11T18:15:18.903Z,5.20
2019-02-11T18:17:47.462Z,5.20
2019-02-11T18:20:16.107Z,5.20
2019-02-11T18:22:44.747Z,5.10
2019-02-11T18:25:13.467Z,5.10
2019-02-11T18:27:42.170Z,5.10
2019-02-11T18:30:14.346Z,5.10
2019-02-11T18:32:43.436Z,5.10
2019-02-11T18:35:14.806Z,5.10
2019-02-11T18:37:43.483Z,5.10
2019-02-11T18:40:14.189Z,5.10
2019-02-11T18:42:43.108Z,5.10
2019-02-11T18:45:14.435Z,5.10
2019-02-11T18:47:43.605Z,5.10
2019-02-11T18:50:14.518Z,5.00
2019-02-11T18:52:43.735Z,5.10
2019-02-11T18:55:17.362Z,5.00
2019-02-11T18:57:46.478Z,5.00
2019-02-11T19:00:18.552Z,5.00
2019-02-11T19:02:47.532Z,5.00
2019-02-11T19:05:16.822Z,5.00
2019-02-11T19:07:45.684Z,5.00
2019-02-11T19:10:16.296Z,5.00
2019-02-11T19:12:45.778Z,4.90
2019-02-11T19:15:16.638Z,4.90
2019-02-11T19:17:45.389Z,4.90
2019-02-11T19:20:15.694Z,4.90
2019-02-11T19:22:44.604Z,5.00
2019-02-11T19:25:14.579Z,4.90
2019-02-11T19:27:44.023Z,4.90
2019-02-11T19:30:21.340Z,4.90
2019-02-11T19:32:50.553Z,4.90
2019-02-11T19:35:19.209Z,4.90
2019-02-11T19:37:48.586Z,4.90
2019-02-11T19:40:19.454Z,4.90
2019-02-11T19:42:48.689Z,4.90
2019-02-11T19:45:24.620Z,4.90
2019-02-11T19:47:53.571Z,4.80
2019-02-11T19:50:22.124Z,4.80
2019-02-11T19:52:50.947Z,4.80
2019-02-11T19:55:19.505Z,4.80
2019-02-11T19:57:48.314Z,4.80
2019-02-11T20:00:19.389Z,4.70
2019-02-11T20:02:49.086Z,4.70
2019-02-11T20:05:17.742Z,4.70
2019-02-11T20:07:46.975Z,4.70
2019-02-11T20:10:20.990Z,4.70
2019-02-11T20:12:49.856Z,4.70
2019-02-11T20:15:21.497Z,4.70
2019-02-11T20:17:50.492Z,4.70
2019-02-11T20:20:21.184Z,4.60
2019-02-11T20:22:50.118Z,4.60
2019-02-11T20:25:18.750Z,4.60
2019-02-11T20:27:47.719Z,4.60
2019-02-11T20:30:19.095Z,4.60
2019-02-11T20:32:47.839Z,4.50
2019-02-11T20:35:16.495Z,4.50
2019-02-11T20:37:45.951Z,4.50
2019-02-11T20:40:19.898Z,4.50
2019-02-11T20:42:48.829Z,4.40
2019-02-11T20:45:20.151Z,4.40
2019-02-11T20:47:48.700Z,4.40
2019-02-11T20:50:17.528Z,4.30
2019-02-11T20:52:46.227Z,4.30
2019-02-11T20:55:15.524Z,4.40
2019-02-11T20:57:45.407Z,4.30
2019-02-11T21:00:17.554Z,4.30
2019-02-11T21:02:46.298Z,4.30
2019-02-11T21:05:15.320Z,4.20
2019-02-11T21:07:44.211Z,4.30
2019-02-11T21:10:15.228Z,4.20
2019-02-11T21:12:43.908Z,4.20
2019-02-11T21:15:14.617Z,4.20
2019-02-11T21:17:43.545Z,4.20
2019-02-11T21:20:37.929Z,4.10
2019-02-11T21:23:08.323Z,4.10
2019-02-11T21:25:37.440Z,4.10
2019-02-11T21:28:08.657Z,4.10
2019-02-11T21:30:37.479Z,4.00
2019-02-11T21:33:06.039Z,4.10
2019-02-11T21:35:36.330Z,4.00
2019-02-11T21:38:04.977Z,4.00
2019-02-11T21:40:33.859Z,4.00
2019-02-11T21:43:02.741Z,4.00
2019-02-11T21:45:31.456Z,4.00
2019-02-11T21:48:00.019Z,4.00
2019-02-11T21:50:29.021Z,4.00
2019-02-11T21:52:57.567Z,4.00
2019-02-11T21:55:26.699Z,3.90
2019-02-11T21:57:55.296Z,3.90
2019-02-11T22:00:24.243Z,3.80
2019-02-11T22:02:53.263Z,3.80
2019-02-11T22:05:21.866Z,3.80
2019-02-11T22:07:50.500Z,3.80
2019-02-11T22:10:23.363Z,3.80
2019-02-11T22:12:52.121Z,3.80
2019-02-11T22:15:20.979Z,3.70
2019-02-11T22:17:51.028Z,3.70
2019-02-11T22:20:21.171Z,3.70
2019-02-11T22:22:49.870Z,3.70
2019-02-11T22:25:18.423Z,3.70
2019-02-11T22:27:47.124Z,3.70
2019-02-11T22:30:23.629Z,3.60
2019-02-11T22:32:52.861Z,3.60
2019-02-11T22:35:21.743Z,3.50
2019-02-11T22:37:51.244Z,3.50
2019-02-11T22:40:20.137Z,3.50
2019-02-11T22:42:48.709Z,3.50
2019-02-11T22:45:26.315Z,3.50
2019-02-11T22:47:54.908Z,3.50
2019-02-11T22:50:23.514Z,3.50
2019-02-11T22:52:52.165Z,3.50
2019-02-11T22:55:20.811Z,3.50
2019-02-11T22:57:49.439Z,3.60
2019-02-11T23:00:40.981Z,3.60
2019-02-11T23:03:09.599Z,3.60
2019-02-11T23:05:38.411Z,3.70
2019-02-11T23:08:07.043Z,3.70
2019-02-11T23:10:35.692Z,3.80
2019-02-11T23:13:04.621Z,3.80
2019-02-11T23:15:33.477Z,3.90
2019-02-11T23:18:02.041Z,3.90
2019-02-11T23:20:30.847Z,4.00
2019-02-11T23:22:59.415Z,4.10
2019-02-11T23:25:28.061Z,4.00
2019-02-11T23:27:56.619Z,4.10
2019-02-11T23:30:25.603Z,4.10
2019-02-11T23:32:54.481Z,4.20
2019-02-11T23:35:23.209Z,4.20
2019-02-11T23:37:51.763Z,4.20
2019-02-11T23:40:20.553Z,4.20
2019-02-11T23:42:49.115Z,4.20
2019-02-11T23:45:17.921Z,4.30
2019-02-11T23:47:46.476Z,4.30
2019-02-11T23:50:15.281Z,4.30
2019-02-11T23:52:43.840Z,4.30
2019-02-11T23:55:12.661Z,4.20
2019-02-11T23:57:41.227Z,4.20
